Hauptseite
METAR-TAF:

METAR-TAF

Flughäfen :

Flughafen Teruel

Teruel, Spanien

Breite: 40-24-43N, Länge: 01-13-03W, Höhe: 1030 m

Beobachtung

Neuester Wetterbericht von vor 25 Minuten, um 22:00 UTC
Wind 7 kt aus West
Temperatur 4°C
Luftfeuchtigkeit 60%
Luftdruck 1027 hPa
Sichtweite 10 km oder mehr
keine Wolken unter 1500 m und keine Kumulonimbus oder Gewitterwolken

METAR: LETL 202200Z AUTO 28007KT CAVOK 04/M03 Q1027

Zeit: 23:25 (22:25 UTC)


TAF: fehlend

Wetterbeobachtungen und Prognosen von mehr als 4000 Flughäfen (METAR und TAF Bericht).

Die verfügbaren Stationen werden durch gelbe und rote Markierungen auf der Karte dargestellt.

Führen Sie die Maus auf sie, um den Namen der Station zu sehen.

Darauf klicken, um die Beobachtung von Wetterbeobachtungen und Prognosen zu sehen.

Um die Karte zu ändern : klicken Sie auf den grünen Tasten mit einem schwarzen Kreuz Zum Vergrößern, auf den grünen Button mit einem Gedankenstrich zu verkleinern, oder auf die grünen Pfeile für benachbarte Karten.


METAR-TAF: